createdAt,value
2019-06-20T06:37:16.182Z,6.67
2019-06-20T06:40:02.295Z,7.27
2019-06-20T06:42:48.263Z,6.77
2019-06-20T06:45:29.454Z,6.50
2019-06-20T06:48:19.888Z,6.60
2019-06-20T06:51:02.674Z,6.60
2019-06-20T06:53:43.733Z,5.63
2019-06-20T06:56:30.482Z,5.93
2019-06-20T06:59:17.041Z,6.27
2019-06-20T07:02:04.201Z,5.87
2019-06-20T07:04:40.145Z,6.10
2019-06-20T07:07:11.752Z,6.10
2019-06-20T07:09:46.195Z,6.17
2019-06-20T07:12:27.971Z,5.10
2019-06-20T07:15:10.511Z,5.33
2019-06-20T07:17:56.492Z,5.53
2019-06-20T07:20:35.622Z,5.33
2019-06-20T07:23:13.601Z,5.73
2019-06-20T07:26:00.202Z,5.83
2019-06-20T07:28:33.577Z,5.27
2019-06-20T07:31:12.088Z,5.27
2019-06-20T07:33:58.979Z,4.87
2019-06-20T07:36:42.871Z,4.83
2019-06-20T07:39:17.190Z,4.67
2019-06-20T07:42:01.128Z,4.80
2019-06-20T07:44:50.893Z,3.93
2019-06-20T07:47:34.870Z,4.63
2019-06-20T07:50:12.123Z,4.63
2019-06-20T07:53:01.902Z,4.30
2019-06-20T07:55:33.610Z,4.40
2019-06-20T07:58:09.018Z,4.37
2019-06-20T08:00:54.696Z,3.60
2019-06-20T08:03:30.130Z,4.20
2019-06-20T08:06:10.756Z,3.83
2019-06-20T08:08:55.423Z,3.70
2019-06-20T08:11:36.890Z,3.95
2019-06-20T08:14:24.367Z,3.63
2019-06-20T08:17:04.263Z,3.77
2019-06-20T08:20:02.671Z,3.60
2019-06-20T08:22:34.654Z,3.70
2019-06-20T08:25:12.666Z,3.50
2019-06-20T08:27:53.693Z,3.60
2019-06-20T08:30:30.412Z,4.00
2019-06-20T08:33:13.557Z,3.37
2019-06-20T08:36:00.469Z,3.40
2019-06-20T08:38:44.718Z,3.67
2019-06-20T08:41:35.417Z,3.70
2019-06-20T08:44:22.502Z,3.67
2019-06-20T08:47:02.278Z,3.80
2019-06-20T08:49:45.474Z,3.67
2019-06-20T08:52:27.741Z,3.42
2019-06-20T08:55:03.295Z,4.13
2019-06-20T08:57:34.499Z,4.00
2019-06-20T09:00:16.695Z,3.92
2019-06-20T09:02:58.631Z,3.90
2019-06-20T09:05:36.130Z,4.07
2019-06-20T09:08:20.216Z,3.80
2019-06-20T09:10:57.555Z,3.98
2019-06-20T09:13:43.452Z,3.77
2019-06-20T09:16:28.222Z,3.77
2019-06-20T09:19:04.506Z,3.30
2019-06-20T09:21:44.918Z,3.90
2019-06-20T09:24:28.770Z,3.80
2019-06-20T09:27:11.303Z,4.27
2019-06-20T09:29:54.367Z,4.17
2019-06-20T09:32:48.746Z,3.73
2019-06-20T09:35:52.410Z,3.55
2019-06-20T09:38:35.513Z,3.77
2019-06-20T09:41:22.009Z,3.77
2019-06-20T09:44:07.630Z,4.33
2019-06-20T09:46:53.909Z,4.15
2019-06-20T09:49:37.368Z,4.20
2019-06-20T09:52:18.034Z,4.53
2019-06-20T09:54:59.207Z,4.20
2019-06-20T09:57:44.574Z,3.95
2019-06-20T10:00:22.320Z,4.60
2019-06-20T10:03:06.521Z,4.15
2019-06-20T10:05:48.911Z,4.33
2019-06-20T10:08:34.217Z,4.50
2019-06-20T10:11:17.370Z,4.25
2019-06-20T10:14:00.733Z,4.10
2019-06-20T10:16:45.724Z,4.50
2019-06-20T10:19:26.231Z,4.70
2019-06-20T10:22:13.765Z,4.03
2019-06-20T10:25:07.984Z,4.62
2019-06-20T10:27:53.396Z,4.30
2019-06-20T10:30:38.853Z,4.58
2019-06-20T10:33:17.393Z,4.85
2019-06-20T10:35:54.032Z,4.50
2019-06-20T10:38:24.889Z,4.62
2019-06-20T10:40:58.628Z,4.65
2019-06-20T10:43:39.336Z,4.70
2019-06-20T10:46:29.188Z,4.50
2019-06-20T10:49:06.430Z,4.83
2019-06-20T10:51:47.599Z,4.93
2019-06-20T10:54:22.608Z,4.72
2019-06-20T10:57:04.809Z,5.10
2019-06-20T10:59:51.746Z,5.10
2019-06-20T11:02:36.786Z,5.10
2019-06-20T11:05:23.998Z,4.87
2019-06-20T11:08:11.964Z,5.47
2019-06-20T11:10:56.318Z,5.07
2019-06-20T11:13:42.130Z,5.08
2019-06-20T11:16:30.951Z,5.67
2019-06-20T11:19:15.826Z,5.20
2019-06-20T11:21:56.687Z,5.37
2019-06-20T11:24:43.016Z,5.70
2019-06-20T11:27:29.011Z,5.42
2019-06-20T11:30:18.054Z,5.75
2019-06-20T11:33:00.619Z,5.28
2019-06-20T11:35:51.973Z,5.45
2019-06-20T11:38:39.033Z,5.40
2019-06-20T11:41:20.854Z,5.35
2019-06-20T11:43:58.784Z,5.10
2019-06-20T11:46:42.639Z,5.17
2019-06-20T11:49:20.763Z,4.80
2019-06-20T11:52:03.793Z,5.30
2019-06-20T11:54:48.343Z,5.42
2019-06-20T11:57:28.226Z,5.53
2019-06-20T12:00:16.253Z,4.63
2019-06-20T12:02:59.857Z,4.85
2019-06-20T12:05:41.551Z,5.03
2019-06-20T12:08:24.143Z,5.08
2019-06-20T12:11:04.297Z,5.00
2019-06-20T12:13:44.913Z,4.87
2019-06-20T12:16:42.718Z,4.78
2019-06-20T12:19:27.541Z,5.22
2019-06-20T12:22:13.190Z,4.87
2019-06-20T12:24:49.879Z,4.10
2019-06-20T12:27:29.736Z,4.87
2019-06-20T12:30:06.351Z,4.50
2019-06-20T12:32:53.956Z,4.55
2019-06-20T12:35:32.902Z,5.00
2019-06-20T12:38:18.021Z,4.33
2019-06-20T12:41:05.225Z,5.05
2019-06-20T12:43:50.614Z,4.60
2019-06-20T12:46:31.070Z,4.92
2019-06-20T12:49:13.704Z,5.15
2019-06-20T12:51:49.595Z,4.78
2019-06-20T12:54:31.551Z,4.37
2019-06-20T12:57:07.210Z,5.22
2019-06-20T12:59:50.425Z,4.72
2019-06-20T13:02:23.606Z,4.83
2019-06-20T13:05:06.234Z,5.08
2019-06-20T13:07:46.355Z,4.58
2019-06-20T13:10:19.034Z,4.40
2019-06-20T13:12:58.062Z,4.17
2019-06-20T13:15:33.537Z,4.90
2019-06-20T13:18:08.288Z,5.05
2019-06-20T13:20:50.320Z,4.90
2019-06-20T13:23:26.999Z,4.50
2019-06-20T13:25:56.175Z,4.90
2019-06-20T13:28:54.307Z,5.35
2019-06-20T13:31:06.223Z,4.97
2019-06-20T13:33:42.965Z,5.20
2019-06-20T13:36:16.479Z,5.17
2019-06-20T13:39:00.540Z,4.83
2019-06-20T13:41:48.041Z,4.25
2019-06-20T13:44:21.812Z,4.35
2019-06-20T13:46:55.794Z,4.62
2019-06-20T13:49:33.297Z,4.65
2019-06-20T13:52:15.750Z,4.45
2019-06-20T13:54:58.944Z,5.25
2019-06-20T13:57:41.198Z,5.05
2019-06-20T14:00:20.919Z,4.67
2019-06-20T14:03:10.765Z,4.70
2019-06-20T14:05:49.791Z,4.40
2019-06-20T14:08:31.113Z,4.47
2019-06-20T14:11:11.809Z,5.45
2019-06-20T14:16:34.047Z,4.42
2019-06-20T14:19:10.026Z,4.37
2019-06-20T14:21:58.378Z,4.17
2019-06-20T14:24:38.682Z,4.30
2019-06-20T14:27:22.349Z,4.20
2019-06-20T14:30:00.978Z,3.72
2019-06-20T14:32:43.031Z,3.62
2019-06-20T14:35:20.304Z,3.77
2019-06-20T14:37:52.163Z,3.50
2019-06-20T14:40:32.753Z,2.80
2019-06-20T14:43:21.748Z,2.40
2019-06-20T14:46:09.085Z,2.10
2019-06-20T14:48:54.239Z,1.90
2019-06-20T14:51:30.189Z,2.08
2019-06-20T14:54:19.495Z,2.33
2019-06-20T14:57:02.898Z,2.30
2019-06-20T15:00:01.641Z,1.70
2019-06-20T15:02:51.915Z,1.67
2019-06-20T15:05:34.717Z,2.17
2019-06-20T15:08:16.817Z,2.00
2019-06-20T15:11:01.510Z,1.70
2019-06-20T15:13:43.081Z,1.67
2019-06-20T15:16:25.740Z,1.45
2019-06-20T15:19:05.732Z,1.40
2019-06-20T15:21:48.483Z,1.30
2019-06-20T15:24:31.378Z,1.55
2019-06-20T15:27:03.146Z,1.22
2019-06-20T15:29:32.486Z,1.20
2019-06-20T15:32:09.188Z,1.40
2019-06-20T15:34:40.130Z,1.50
2019-06-20T15:37:27.950Z,1.27
2019-06-20T15:40:09.070Z,1.35
2019-06-20T15:42:42.278Z,1.12
2019-06-20T15:45:19.701Z,1.30
2019-06-20T15:47:59.739Z,1.45
2019-06-20T15:50:36.807Z,1.35
2019-06-20T15:53:06.017Z,1.00
2019-06-20T15:55:41.511Z,1.17
2019-06-20T15:58:14.465Z,1.20
2019-06-20T16:00:42.896Z,1.32
2019-06-20T16:03:15.674Z,1.20
2019-06-20T16:05:52.737Z,0.98
2019-06-20T16:08:32.390Z,1.10
2019-06-20T16:11:09.464Z,1.20
2019-06-20T16:13:50.536Z,0.90
2019-06-20T16:16:32.182Z,1.10
2019-06-20T16:19:09.554Z,1.20
2019-06-20T16:21:48.091Z,1.32
2019-06-20T16:24:26.505Z,1.22
2019-06-20T16:27:04.279Z,1.00
2019-06-20T16:29:42.923Z,1.00
2019-06-20T16:32:20.937Z,1.00
2019-06-20T16:35:06.047Z,1.15
2019-06-20T16:37:45.179Z,1.00
2019-06-20T16:40:28.437Z,1.10
2019-06-20T16:43:01.403Z,1.17
2019-06-20T16:45:38.165Z,1.37
2019-06-20T16:48:21.010Z,1.02
2019-06-20T16:51:07.175Z,1.30
2019-06-20T16:53:40.220Z,0.88
2019-06-20T16:56:21.923Z,1.30
2019-06-20T16:59:08.153Z,1.10
2019-06-20T17:01:52.494Z,0.98
2019-06-20T17:07:13.725Z,0.95
2019-06-20T17:09:57.894Z,0.70
2019-06-20T17:12:44.913Z,0.80
2019-06-20T17:18:16.939Z,0.80
2019-06-20T17:21:01.325Z,1.00
2019-06-20T17:23:43.273Z,0.72
2019-06-20T17:26:26.988Z,0.88
2019-06-20T17:29:09.229Z,0.90
2019-06-20T17:31:57.530Z,1.05
2019-06-20T17:34:37.817Z,0.90
2019-06-20T17:37:20.009Z,0.98
2019-06-20T17:40:04.004Z,1.10
2019-06-20T17:42:50.741Z,1.30
2019-06-20T17:45:25.834Z,0.70
2019-06-20T17:48:07.305Z,0.80
2019-06-20T17:50:50.891Z,1.20
2019-06-20T17:53:28.556Z,0.80
2019-06-20T17:56:05.460Z,0.98
2019-06-20T17:58:44.160Z,0.90
2019-06-20T18:01:23.854Z,0.88
2019-06-20T18:04:14.065Z,0.88
2019-06-20T18:06:44.948Z,0.80
2019-06-20T18:09:22.289Z,0.90
2019-06-20T18:12:03.767Z,1.17
2019-06-20T18:14:50.310Z,1.07
2019-06-20T18:17:39.677Z,1.15
2019-06-20T18:20:20.805Z,1.10
2019-06-20T18:22:57.873Z,1.30
2019-06-20T18:25:42.433Z,1.10
2019-06-20T18:28:14.052Z,1.12
2019-06-20T18:30:45.569Z,1.15
2019-06-20T18:33:28.216Z,1.45
2019-06-20T18:36:19.310Z,1.10
2019-06-20T18:39:02.724Z,1.27
2019-06-20T18:41:51.758Z,1.10
2019-06-20T18:44:23.544Z,0.95
2019-06-20T18:47:01.340Z,1.15
2019-06-20T18:49:47.031Z,1.05
2019-06-20T18:52:29.659Z,1.22
2019-06-20T18:55:12.303Z,1.30
2019-06-20T18:57:54.268Z,0.90
2019-06-20T19:00:41.741Z,0.90
2019-06-20T19:03:24.134Z,1.07
2019-06-20T19:06:16.001Z,0.98
2019-06-20T19:09:06.745Z,1.05
2019-06-20T19:11:51.220Z,0.85
2019-06-20T19:14:33.722Z,0.80
2019-06-20T19:17:22.576Z,1.10
2019-06-20T19:20:12.328Z,0.90
2019-06-20T19:22:53.390Z,1.10
2019-06-20T19:25:31.437Z,1.20
2019-06-20T19:28:11.144Z,0.82
2019-06-20T19:30:45.086Z,0.90
2019-06-20T19:33:31.152Z,0.90
2019-06-20T19:36:10.774Z,1.00
2019-06-20T19:38:59.408Z,0.80
2019-06-20T19:41:34.417Z,1.00
2019-06-20T19:44:17.579Z,1.33
2019-06-20T19:47:05.352Z,1.10
2019-06-20T19:49:56.500Z,1.00
2019-06-20T19:52:44.192Z,1.00
2019-06-20T19:55:30.058Z,1.00
2019-06-20T19:58:06.670Z,1.00
2019-06-20T20:00:47.749Z,1.20
2019-06-20T20:03:31.632Z,0.98
2019-06-20T20:06:12.618Z,1.32
2019-06-20T20:08:58.556Z,0.98
2019-06-20T20:11:43.610Z,3.37
2019-06-20T20:14:27.373Z,2.17
2019-06-20T20:17:15.742Z,2.22
2019-06-20T20:19:59.420Z,1.90
2019-06-20T20:22:44.003Z,1.60
2019-06-20T20:25:22.221Z,1.53
2019-06-20T20:28:05.369Z,1.00
2019-06-20T20:30:53.552Z,1.27
2019-06-20T20:33:42.744Z,1.20
2019-06-20T20:36:35.256Z,1.32
2019-06-20T20:39:22.215Z,1.53
2019-06-20T20:42:06.959Z,1.30
2019-06-20T20:44:55.289Z,1.23
2019-06-20T20:47:41.283Z,1.10
2019-06-20T20:50:24.626Z,1.07
2019-06-20T20:52:53.302Z,1.00
2019-06-20T20:55:30.949Z,1.20
2019-06-20T20:58:13.564Z,1.02
2019-06-20T21:00:55.120Z,0.90
2019-06-20T21:03:42.330Z,1.15
2019-06-20T21:06:31.115Z,1.33
2019-06-20T21:09:11.588Z,1.13
2019-06-20T21:11:57.870Z,0.90
2019-06-20T21:14:44.258Z,1.20
2019-06-20T21:17:29.120Z,1.20
2019-06-20T21:20:06.874Z,1.20
2019-06-20T21:22:56.527Z,1.07
2019-06-20T21:25:35.269Z,1.10
2019-06-20T21:28:16.258Z,1.53
2019-06-20T21:30:53.434Z,1.07
2019-06-20T21:33:39.036Z,1.50
2019-06-20T21:36:26.251Z,1.10
2019-06-20T21:39:11.848Z,1.33
2019-06-20T21:41:48.883Z,1.20
2019-06-20T21:44:35.965Z,1.27
2019-06-20T21:47:14.641Z,1.10
2019-06-20T21:49:59.616Z,1.53
2019-06-20T21:52:40.858Z,1.33
2019-06-20T21:55:32.418Z,1.23
2019-06-20T21:58:08.179Z,1.33
2019-06-20T22:00:45.698Z,1.57
2019-06-20T22:03:24.925Z,1.00
2019-06-20T22:06:22.958Z,0.90
2019-06-20T22:08:55.466Z,1.50
2019-06-20T22:11:32.222Z,1.40
2019-06-20T22:14:07.914Z,1.10
2019-06-20T22:16:48.132Z,1.33
2019-06-20T22:19:31.122Z,1.37
2019-06-20T22:22:15.221Z,1.50
2019-06-20T22:25:09.186Z,1.57
2019-06-20T22:27:45.555Z,1.93
2019-06-20T22:30:27.659Z,1.73
2019-06-20T22:33:15.054Z,1.20
2019-06-20T22:36:05.228Z,1.50
2019-06-20T22:38:53.244Z,1.57
2019-06-20T22:41:42.435Z,1.50
2019-06-20T22:44:28.263Z,1.70
2019-06-20T22:47:12.439Z,1.70
2019-06-20T22:49:52.752Z,1.80
2019-06-20T22:52:34.987Z,2.23
2019-06-20T22:55:19.229Z,1.77
2019-06-20T22:58:04.786Z,1.47
2019-06-20T23:00:47.412Z,1.60
2019-06-20T23:03:41.850Z,1.77
2019-06-20T23:06:16.274Z,1.90
2019-06-20T23:08:59.906Z,2.00
2019-06-20T23:11:48.322Z,2.13
2019-06-20T23:14:33.597Z,1.90
2019-06-20T23:17:29.720Z,1.90
2019-06-20T23:20:10.736Z,1.77
2019-06-20T23:22:43.158Z,1.77
2019-06-20T23:25:13.702Z,2.03
2019-06-20T23:27:46.543Z,2.00
2019-06-20T23:30:20.133Z,1.90
2019-06-20T23:33:04.910Z,2.07
2019-06-20T23:35:45.066Z,1.70
2019-06-20T23:38:31.315Z,2.07
2019-06-20T23:41:19.232Z,1.90
2019-06-20T23:43:59.596Z,1.90
2019-06-20T23:46:43.031Z,1.97
2019-06-20T23:49:21.537Z,1.60
2019-06-20T23:52:08.766Z,1.57
2019-06-20T23:54:53.646Z,1.97
2019-06-20T23:57:26.020Z,1.80
2019-06-20T23:59:56.406Z,1.70
